createdAt,value
2018-08-04T00:00:13.180Z,34.2
2018-08-04T00:01:14.303Z,32.7
2018-08-04T00:02:15.746Z,34.2
2018-08-04T00:03:17.021Z,33.7
2018-08-04T00:04:18.486Z,34.2
2018-08-04T00:05:20.087Z,33.7
2018-08-04T00:06:21.680Z,33.7
2018-08-04T00:07:23.130Z,34.2
2018-08-04T00:08:24.577Z,33.7
2018-08-04T00:09:26.023Z,33.7
2018-08-04T00:10:27.296Z,33.2
2018-08-04T00:11:28.935Z,33.2
2018-08-04T00:12:30.541Z,33.7
2018-08-04T00:13:31.816Z,33.2
2018-08-04T00:14:33.279Z,33.2
2018-08-04T00:15:34.879Z,34.2
2018-08-04T00:16:36.482Z,33.2
2018-08-04T00:17:37.927Z,33.7
2018-08-04T00:18:39.209Z,33.2
2018-08-04T00:19:40.651Z,33.7
2018-08-04T00:20:42.260Z,33.2
2018-08-04T00:21:43.858Z,34.2
2018-08-04T00:22:45.479Z,34.2
2018-08-04T00:23:47.095Z,33.7
2018-08-04T00:24:48.683Z,33.7
2018-08-04T00:25:50.349Z,33.7
2018-08-04T00:26:51.791Z,33.7
2018-08-04T00:27:53.221Z,33.2
2018-08-04T00:28:54.339Z,33.7
2018-08-04T00:29:55.467Z,33.2
2018-08-04T00:30:57.083Z,33.7
2018-08-04T00:31:58.686Z,33.7
2018-08-04T00:33:00.299Z,33.2
2018-08-04T00:34:01.591Z,33.2
2018-08-04T00:35:03.216Z,33.7
2018-08-04T00:36:04.819Z,32.7
2018-08-04T00:37:06.448Z,33.7
2018-08-04T00:38:07.896Z,33.2
2018-08-04T00:39:09.479Z,32.7
2018-08-04T00:40:11.079Z,32.7
2018-08-04T00:41:12.354Z,32.7
2018-08-04T00:42:13.789Z,33.2
2018-08-04T00:43:15.406Z,33.2
2018-08-04T00:44:16.994Z,32.3
2018-08-04T00:45:18.603Z,32.3
2018-08-04T00:46:20.200Z,32.7
2018-08-04T00:47:21.642Z,32.7
2018-08-04T00:48:23.124Z,33.2
2018-08-04T00:49:24.749Z,32.7
2018-08-04T00:50:26.374Z,33.2
2018-08-04T00:51:27.966Z,33.7
2018-08-04T00:52:29.224Z,33.7
2018-08-04T00:53:30.811Z,33.2
2018-08-04T00:54:32.073Z,32.7
2018-08-04T00:55:33.509Z,33.2
2018-08-04T00:56:35.114Z,32.7
2018-08-04T00:57:36.560Z,33.7
2018-08-04T00:58:38.181Z,32.7
2018-08-04T00:59:39.673Z,33.7
2018-08-04T01:00:41.272Z,33.2
2018-08-04T01:01:42.708Z,33.2
2018-08-04T01:02:44.324Z,32.3
2018-08-04T01:03:45.775Z,32.7
2018-08-04T01:04:47.227Z,32.7
2018-08-04T01:05:48.666Z,33.2
2018-08-04T01:06:50.097Z,33.2
2018-08-04T01:07:51.705Z,31.3
2018-08-04T01:08:53.304Z,29.3
2018-08-04T01:09:54.397Z,28.8
2018-08-04T01:10:56.016Z,29.3
2018-08-04T01:11:57.610Z,29.3
2018-08-04T01:12:59.228Z,30.3
2018-08-04T01:14:00.846Z,31.8
2018-08-04T01:15:02.305Z,32.7
2018-08-04T01:16:03.917Z,34.2
2018-08-04T01:17:05.523Z,35.2
2018-08-04T01:18:07.153Z,35.2
2018-08-04T01:19:08.606Z,36.2
2018-08-04T01:20:10.211Z,36.7
2018-08-04T01:21:11.822Z,37.1
2018-08-04T01:22:13.422Z,38.1
2018-08-04T01:23:15.041Z,38.6
2018-08-04T01:24:16.631Z,38.6
2018-08-04T01:25:18.266Z,38.6
2018-08-04T01:26:19.525Z,40.1
2018-08-04T01:27:21.143Z,39.6
2018-08-04T01:28:22.578Z,39.6
2018-08-04T01:29:24.162Z,39.6
2018-08-04T01:30:25.590Z,40.6
2018-08-04T01:31:27.024Z,40.6
2018-08-04T01:32:28.446Z,40.6
2018-08-04T01:33:29.877Z,41.1
2018-08-04T01:34:31.134Z,40.6
2018-08-04T01:35:32.746Z,41.5
2018-08-04T01:36:34.406Z,42
2018-08-04T01:37:36.030Z,41.5
2018-08-04T01:38:37.650Z,41.1
2018-08-04T01:39:39.269Z,41.5
2018-08-04T01:40:40.565Z,41.5
2018-08-04T01:41:42.046Z,41.5
2018-08-04T01:42:43.295Z,42
2018-08-04T01:43:44.735Z,41.5
2018-08-04T01:44:46.333Z,42
2018-08-04T01:45:47.765Z,42
2018-08-04T01:46:49.040Z,42
2018-08-04T01:47:50.630Z,41.5
2018-08-04T01:48:52.220Z,41.5
2018-08-04T01:49:53.645Z,42.5
2018-08-04T01:50:55.268Z,41.5
2018-08-04T01:51:56.867Z,42
2018-08-04T01:52:58.498Z,41.5
2018-08-04T01:53:59.753Z,42
2018-08-04T01:55:01.381Z,42
2018-08-04T01:56:02.825Z,42
2018-08-04T01:57:04.438Z,42
2018-08-04T01:58:05.890Z,41.5
2018-08-04T01:59:07.312Z,41.5
2018-08-04T02:00:08.922Z,42
2018-08-04T02:01:10.529Z,42.5
2018-08-04T02:02:11.960Z,41.1
2018-08-04T02:03:13.412Z,41.5
2018-08-04T02:04:15.012Z,41.5
2018-08-04T02:05:16.653Z,41.5
2018-08-04T02:06:18.251Z,41.5
2018-08-04T02:07:20.151Z,42
2018-08-04T02:08:22.016Z,42
2018-08-04T02:09:23.440Z,41.1
2018-08-04T02:10:24.868Z,42
2018-08-04T02:11:26.340Z,41.5
2018-08-04T02:12:27.939Z,42
2018-08-04T02:13:29.366Z,41.1
2018-08-04T02:14:30.816Z,41.5
2018-08-04T02:15:32.261Z,41.1
2018-08-04T02:16:33.864Z,41.5
2018-08-04T02:17:35.150Z,41.1
2018-08-04T02:18:36.751Z,41.5
2018-08-04T02:19:38.357Z,41.1
2018-08-04T02:20:39.959Z,41.5
2018-08-04T02:21:41.394Z,40.6
2018-08-04T02:22:42.680Z,40.1
2018-08-04T02:23:44.273Z,41.5
2018-08-04T02:24:45.696Z,41.1
2018-08-04T02:25:47.319Z,41.1
2018-08-04T02:26:48.912Z,41.5
2018-08-04T02:27:50.058Z,41.1
2018-08-04T02:28:51.652Z,40.6
2018-08-04T02:29:53.272Z,40.6
2018-08-04T02:30:54.730Z,40.6
2018-08-04T02:31:56.354Z,40.6
2018-08-04T02:32:57.827Z,41.1
2018-08-04T02:33:59.127Z,40.6
2018-08-04T02:35:00.725Z,41.1
2018-08-04T02:36:02.368Z,41.1
2018-08-04T02:37:04.027Z,40.6
2018-08-04T02:38:05.641Z,41.1
2018-08-04T02:39:07.262Z,40.6
2018-08-04T02:40:08.542Z,40.6
2018-08-04T02:41:09.993Z,40.6
2018-08-04T02:42:11.622Z,41.1
2018-08-04T02:43:12.923Z,40.1
2018-08-04T02:44:14.368Z,40.1
2018-08-04T02:45:15.638Z,41.1
2018-08-04T02:46:17.072Z,40.6
2018-08-04T02:47:18.549Z,41.1
2018-08-04T02:48:20.185Z,40.6
2018-08-04T02:49:21.799Z,40.1
2018-08-04T02:50:23.440Z,41.1
2018-08-04T02:51:25.074Z,41.1
2018-08-04T02:52:26.507Z,39.6
2018-08-04T02:53:28.125Z,40.1
2018-08-04T02:54:29.723Z,40.1
2018-08-04T02:55:31.337Z,40.6
2018-08-04T02:56:32.590Z,40.6
2018-08-04T02:57:34.212Z,40.6
2018-08-04T02:58:35.845Z,41.1
2018-08-04T02:59:37.285Z,40.6
2018-08-04T03:00:38.933Z,40.1
2018-08-04T03:01:40.395Z,40.6
2018-08-04T03:02:42.004Z,40.1
2018-08-04T03:03:43.438Z,40.1
2018-08-04T03:04:45.082Z,40.6
2018-08-04T03:05:46.699Z,40.1
2018-08-04T03:06:48.315Z,39.6
2018-08-04T03:07:49.918Z,41.1
2018-08-04T03:08:51.546Z,39.6
2018-08-04T03:09:52.862Z,39.6
2018-08-04T03:10:54.336Z,39.6
2018-08-04T03:11:56.034Z,40.1
2018-08-04T03:12:57.636Z,39.6
2018-08-04T03:13:59.250Z,40.1
2018-08-04T03:15:00.721Z,40.1
2018-08-04T03:16:02.334Z,40.6
2018-08-04T03:17:03.806Z,40.1
2018-08-04T03:18:05.265Z,40.6
2018-08-04T03:19:06.894Z,39.6
2018-08-04T03:20:08.163Z,40.6
2018-08-04T03:21:09.623Z,39.1
2018-08-04T03:22:11.241Z,40.1
2018-08-04T03:23:12.677Z,39.6
2018-08-04T03:24:14.271Z,40.1
2018-08-04T03:25:15.875Z,40.1
2018-08-04T03:26:17.164Z,39.6
2018-08-04T03:27:18.621Z,40.1
2018-08-04T03:28:20.122Z,39.6
2018-08-04T03:29:21.560Z,39.6
2018-08-04T03:30:23.157Z,39.6
2018-08-04T03:31:24.290Z,40.1
2018-08-04T03:32:25.936Z,39.6
2018-08-04T03:33:27.525Z,39.6
2018-08-04T03:34:28.801Z,40.1
2018-08-04T03:35:30.402Z,39.6
2018-08-04T03:36:31.828Z,40.6
2018-08-04T03:37:33.435Z,41.1
2018-08-04T03:38:34.883Z,40.1
2018-08-04T03:39:36.471Z,41.1
2018-08-04T03:40:37.905Z,40.1
2018-08-04T03:41:39.513Z,40.6
2018-08-04T03:42:40.678Z,41.1
2018-08-04T03:43:42.125Z,41.1
2018-08-04T03:44:43.733Z,40.6
2018-08-04T03:45:45.353Z,42
2018-08-04T03:46:46.967Z,41.5
2018-08-04T03:47:48.396Z,42
2018-08-04T03:48:49.993Z,41.5
2018-08-04T03:49:51.424Z,41.5
2018-08-04T03:50:52.886Z,41.5
2018-08-04T03:51:54.497Z,42
2018-08-04T03:52:56.107Z,41.5
2018-08-04T03:53:57.707Z,41.5
2018-08-04T03:54:59.326Z,42
2018-08-04T03:56:00.608Z,42
2018-08-04T03:57:02.208Z,41.5
2018-08-04T03:58:03.810Z,41.5
2018-08-04T03:59:05.412Z,42
2018-08-04T04:00:06.850Z,42
2018-08-04T04:01:08.460Z,42
2018-08-04T04:02:10.080Z,42
2018-08-04T04:03:11.681Z,42
2018-08-04T04:04:12.943Z,41.5
2018-08-04T04:05:14.041Z,42.5
2018-08-04T04:06:15.624Z,42
2018-08-04T04:07:17.054Z,41.5
2018-08-04T04:08:18.513Z,41.5
2018-08-04T04:09:19.949Z,41.5
2018-08-04T04:10:21.406Z,42
2018-08-04T04:11:22.998Z,41.5
2018-08-04T04:12:24.593Z,41.1
2018-08-04T04:13:26.082Z,41.1
2018-08-04T04:14:27.686Z,42
2018-08-04T04:15:28.969Z,41.5
2018-08-04T04:16:30.413Z,42
2018-08-04T04:17:31.847Z,41.5
2018-08-04T04:18:33.286Z,42
2018-08-04T04:19:34.729Z,41.5
2018-08-04T04:20:36.166Z,41.5
2018-08-04T04:21:37.757Z,41.5
2018-08-04T04:22:39.376Z,42.5
2018-08-04T04:23:40.819Z,41.1
2018-08-04T04:24:42.431Z,42
2018-08-04T04:25:43.886Z,41.5
2018-08-04T04:26:45.327Z,42
2018-08-04T04:27:46.951Z,41.5
2018-08-04T04:28:48.544Z,41.5
2018-08-04T04:29:50.176Z,41.5
2018-08-04T04:30:51.781Z,41.1
2018-08-04T04:31:53.390Z,41.5
2018-08-04T04:32:55.001Z,41.1
2018-08-04T04:33:56.614Z,40.6
2018-08-04T04:34:58.062Z,40.6
2018-08-04T04:35:59.505Z,41.1
2018-08-04T04:37:01.532Z,41.5
2018-08-04T04:38:03.105Z,41.1
2018-08-04T04:39:04.718Z,41.1
2018-08-04T04:40:06.316Z,40.6
2018-08-04T04:41:07.909Z,41.5
2018-08-04T04:42:09.920Z,40.6
2018-08-04T04:43:11.371Z,40.6
2018-08-04T04:44:13.114Z,41.1
2018-08-04T04:45:14.776Z,40.1
2018-08-04T04:46:16.429Z,41.5
2018-08-04T04:47:17.904Z,41.1
2018-08-04T04:48:19.519Z,41.1
2018-08-04T04:49:21.221Z,40.6
2018-08-04T04:50:22.690Z,40.6
2018-08-04T04:51:24.674Z,40.6
2018-08-04T04:52:26.397Z,40.6
2018-08-04T04:53:27.830Z,40.6
2018-08-04T04:54:29.434Z,40.6
2018-08-04T04:55:31.308Z,40.6
2018-08-04T04:56:32.993Z,40.6
2018-08-04T04:57:34.609Z,40.6
2018-08-04T04:58:36.209Z,40.1
2018-08-04T04:59:37.835Z,40.6
2018-08-04T05:00:39.296Z,40.1
2018-08-04T05:01:40.959Z,40.6
2018-08-04T05:02:44.469Z,40.6
2018-08-04T05:03:45.923Z,41.1
2018-08-04T05:04:47.964Z,41.1
2018-08-04T05:05:49.482Z,41.1
2018-08-04T05:06:50.943Z,40.1
2018-08-04T05:07:52.630Z,40.1
2018-08-04T05:08:54.098Z,40.1
2018-08-04T05:09:55.864Z,40.1
2018-08-04T05:10:57.603Z,40.6
2018-08-04T05:11:59.046Z,40.6
2018-08-04T05:13:00.679Z,40.6
2018-08-04T05:14:02.327Z,39.6
2018-08-04T05:15:03.955Z,39.6
2018-08-04T05:16:05.592Z,39.6
2018-08-04T05:17:07.196Z,39.6
2018-08-04T05:18:08.630Z,39.6
2018-08-04T05:19:10.248Z,40.1
2018-08-04T05:20:11.847Z,40.6
2018-08-04T05:21:13.443Z,40.6
2018-08-04T05:22:15.059Z,39.6
2018-08-04T05:23:16.749Z,40.6
2018-08-04T05:24:18.403Z,40.1
2018-08-04T05:25:20.074Z,39.6
2018-08-04T05:26:21.510Z,40.1
2018-08-04T05:27:22.944Z,39.6
2018-08-04T05:28:24.376Z,39.6
2018-08-04T05:29:25.651Z,40.1
2018-08-04T05:30:26.916Z,40.1
2018-08-04T05:31:28.532Z,40.6
2018-08-04T05:32:29.973Z,39.6
2018-08-04T05:33:31.407Z,39.6
2018-08-04T05:34:33.006Z,39.6
2018-08-04T05:35:34.565Z,40.1
2018-08-04T05:36:35.895Z,40.6
2018-08-04T05:37:37.409Z,40.1
2018-08-04T05:38:38.898Z,39.6
2018-08-04T05:39:40.531Z,40.1
2018-08-04T05:40:42.129Z,39.6
2018-08-04T05:41:43.594Z,40.1
2018-08-04T05:42:45.370Z,40.1
2018-08-04T05:43:47.124Z,40.1
2018-08-04T05:44:48.581Z,40.6
2018-08-04T05:45:50.185Z,40.6
2018-08-04T05:46:51.776Z,40.6
2018-08-04T05:47:53.392Z,40.1
2018-08-04T05:48:55.006Z,40.6
2018-08-04T05:49:56.753Z,40.1
2018-08-04T05:50:58.502Z,40.1
2018-08-04T05:51:59.937Z,41.1
2018-08-04T05:53:01.537Z,41.5
2018-08-04T05:54:03.007Z,41.5
2018-08-04T05:55:04.609Z,41.5
2018-08-04T05:56:06.067Z,42
2018-08-04T05:57:07.331Z,42
2018-08-04T05:58:08.444Z,42
2018-08-04T05:59:09.722Z,41.1
2018-08-04T06:00:11.527Z,41.5
2018-08-04T06:01:13.047Z,41.5
2018-08-04T06:02:14.500Z,42.5
2018-08-04T06:03:16.442Z,42
2018-08-04T06:04:17.847Z,43
2018-08-04T06:05:19.458Z,42
2018-08-04T06:06:20.893Z,42
2018-08-04T06:07:22.335Z,41.5
2018-08-04T06:08:23.947Z,42.5
2018-08-04T06:09:25.390Z,42.5
2018-08-04T06:10:26.823Z,42.5
2018-08-04T06:11:28.281Z,42
2018-08-04T06:12:29.728Z,42.5
2018-08-04T06:13:31.184Z,41.5
2018-08-04T06:14:32.790Z,42
2018-08-04T06:15:34.229Z,42.5
2018-08-04T06:16:35.839Z,42.5
2018-08-04T06:17:37.444Z,42
2018-08-04T06:18:38.873Z,41.5
2018-08-04T06:19:40.324Z,42
2018-08-04T06:20:41.772Z,42.5
2018-08-04T06:21:43.236Z,42
2018-08-04T06:22:44.847Z,42.5
2018-08-04T06:23:46.747Z,42.5
2018-08-04T06:24:48.407Z,43
2018-08-04T06:25:49.850Z,42
2018-08-04T06:26:51.332Z,42.5
2018-08-04T06:27:52.941Z,41.5
2018-08-04T06:28:54.219Z,41.5
2018-08-04T06:29:55.820Z,42
2018-08-04T06:30:57.419Z,41.5
2018-08-04T06:31:58.886Z,42
2018-08-04T06:33:00.481Z,42
2018-08-04T06:34:02.077Z,41.5
2018-08-04T06:35:03.354Z,41.5
2018-08-04T06:36:04.842Z,41.5
2018-08-04T06:37:06.327Z,41.5
2018-08-04T06:38:07.930Z,42
2018-08-04T06:39:09.546Z,42
2018-08-04T06:40:11.006Z,41.5
2018-08-04T06:41:12.634Z,41.5
2018-08-04T06:42:14.258Z,41.5
2018-08-04T06:43:15.857Z,40.6
2018-08-04T06:44:17.314Z,41.1
2018-08-04T06:45:18.941Z,41.5
2018-08-04T06:46:20.552Z,41.5
2018-08-04T06:47:22.187Z,40.6
2018-08-04T06:48:23.847Z,41.5
2018-08-04T06:49:25.491Z,41.5
2018-08-04T06:50:27.107Z,41.1
2018-08-04T06:51:28.532Z,41.1
2018-08-04T06:52:30.137Z,41.1
2018-08-04T06:53:31.584Z,41.5
2018-08-04T06:54:33.217Z,41.5
2018-08-04T06:55:34.854Z,41.1
2018-08-04T06:56:36.324Z,41.1
2018-08-04T06:57:37.772Z,41.1
2018-08-04T06:58:39.449Z,41.1
2018-08-04T06:59:41.074Z,40.6
2018-08-04T07:00:42.337Z,40.6
2018-08-04T07:01:43.962Z,41.1
2018-08-04T07:02:45.400Z,41.1
2018-08-04T07:03:47.015Z,41.1
2018-08-04T07:04:48.635Z,41.1
2018-08-04T07:05:50.239Z,41.5
2018-08-04T07:06:51.915Z,41.1
2018-08-04T07:07:53.748Z,41.1
2018-08-04T07:08:55.354Z,41.1
2018-08-04T07:09:56.801Z,40.6
2018-08-04T07:10:58.243Z,40.6
2018-08-04T07:11:59.842Z,41.1
2018-08-04T07:13:01.448Z,40.1
2018-08-04T07:14:02.828Z,41.1
2018-08-04T07:15:04.143Z,41.1
2018-08-04T07:16:05.582Z,41.5
2018-08-04T07:17:07.206Z,41.1
2018-08-04T07:18:08.853Z,41.1
2018-08-04T07:19:10.481Z,41.1
2018-08-04T07:20:12.085Z,40.6
2018-08-04T07:21:13.693Z,40.1
2018-08-04T07:22:15.298Z,40.1
2018-08-04T07:23:16.723Z,41.1
2018-08-04T07:24:18.009Z,40.6
2018-08-04T07:25:19.638Z,40.1
2018-08-04T07:26:21.072Z,41.1
2018-08-04T07:27:22.513Z,41.1
2018-08-04T07:28:24.189Z,41.1
2018-08-04T07:29:25.794Z,40.6
2018-08-04T07:30:27.407Z,40.1
2018-08-04T07:31:28.688Z,40.1
2018-08-04T07:32:30.129Z,40.6
2018-08-04T07:33:31.579Z,40.6
2018-08-04T07:34:33.193Z,40.6
2018-08-04T07:35:34.797Z,40.1
2018-08-04T07:36:36.494Z,40.1
2018-08-04T07:37:38.000Z,40.6
2018-08-04T07:38:39.428Z,40.6
2018-08-04T07:39:40.542Z,40.6
2018-08-04T07:40:41.977Z,40.6
2018-08-04T07:41:43.475Z,40.6
2018-08-04T07:42:45.129Z,40.1
2018-08-04T07:43:46.732Z,40.1
2018-08-04T07:44:48.336Z,40.6
2018-08-04T07:45:49.783Z,39.1
2018-08-04T07:46:51.117Z,40.1
2018-08-04T07:47:52.387Z,40.6
2018-08-04T07:48:54.014Z,40.6
2018-08-04T07:49:55.638Z,40.1
2018-08-04T07:50:57.088Z,41.1
2018-08-04T07:51:58.543Z,40.1
2018-08-04T07:53:00.136Z,40.6
2018-08-04T07:54:01.759Z,40.6
2018-08-04T07:55:03.377Z,41.1
2018-08-04T07:56:04.852Z,41.1
2018-08-04T07:57:06.497Z,41.1
2018-08-04T07:58:08.126Z,41.5
2018-08-04T07:59:09.570Z,41.1
2018-08-04T08:00:11.182Z,42
2018-08-04T08:01:12.802Z,41.5
2018-08-04T08:02:14.247Z,42.5
2018-08-04T08:03:15.867Z,42.5
2018-08-04T08:04:17.145Z,42
2018-08-04T08:05:18.449Z,41.5
2018-08-04T08:06:20.010Z,42.5
2018-08-04T08:07:21.691Z,42.5
2018-08-04T08:08:23.358Z,42
2018-08-04T08:09:24.910Z,42
2018-08-04T08:10:26.759Z,42.5
2018-08-04T08:11:28.966Z,42.5
2018-08-04T08:12:30.418Z,42
2018-08-04T08:13:31.869Z,42
2018-08-04T08:14:33.307Z,42
2018-08-04T08:15:34.930Z,41.5
2018-08-04T08:16:36.545Z,41.5
2018-08-04T08:17:38.148Z,42
2018-08-04T08:18:39.754Z,42
2018-08-04T08:19:41.235Z,42
2018-08-04T08:20:42.509Z,42
2018-08-04T08:21:43.780Z,42
2018-08-04T08:22:45.387Z,42
2018-08-04T08:23:46.813Z,42.5
2018-08-04T08:24:48.472Z,42.5
2018-08-04T08:25:50.136Z,41.5
2018-08-04T08:26:51.757Z,42.5
2018-08-04T08:27:53.185Z,41.5
2018-08-04T08:28:54.795Z,41.5
2018-08-04T08:29:56.423Z,42
2018-08-04T08:30:58.027Z,42.5
2018-08-04T08:31:59.632Z,41.5
2018-08-04T08:33:01.092Z,41.5
2018-08-04T08:34:02.537Z,42
2018-08-04T08:35:04.000Z,42
2018-08-04T08:36:05.434Z,41.5
2018-08-04T08:37:07.077Z,41.5
2018-08-04T08:38:08.721Z,41.1
2018-08-04T08:39:10.166Z,42
2018-08-04T08:40:11.772Z,41.1
2018-08-04T08:41:13.388Z,41.5
2018-08-04T08:42:15.041Z,41.1
2018-08-04T08:43:16.655Z,41.5
2018-08-04T08:44:18.099Z,41.5
2018-08-04T08:45:19.728Z,42
2018-08-04T08:46:21.359Z,41.5
2018-08-04T08:47:22.798Z,41.5
2018-08-04T08:48:24.404Z,41.5
2018-08-04T08:49:26.033Z,41.1
2018-08-04T08:50:27.662Z,40.6
2018-08-04T08:51:29.123Z,40.6
2018-08-04T08:52:30.392Z,41.5
2018-08-04T08:53:33.560Z,41.1
2018-08-04T08:54:35.975Z,42
2018-08-04T08:55:37.591Z,41.1
2018-08-04T08:56:39.202Z,41.5
2018-08-04T08:57:40.834Z,41.1
2018-08-04T08:58:42.275Z,41.5
2018-08-04T08:59:43.899Z,41.1
2018-08-04T09:00:45.380Z,41.1
2018-08-04T09:01:46.875Z,40.1
2018-08-04T09:02:48.318Z,40.6
2018-08-04T09:03:49.944Z,41.1
2018-08-04T09:04:51.568Z,41.1
2018-08-04T09:05:53.180Z,41.1
2018-08-04T09:06:54.791Z,40.6
2018-08-04T09:07:56.406Z,40.1
2018-08-04T09:08:57.869Z,41.1
2018-08-04T09:09:59.472Z,41.1
2018-08-04T09:11:00.904Z,40.6
2018-08-04T09:12:02.546Z,40.6
2018-08-04T09:13:03.998Z,41.1
2018-08-04T09:14:05.611Z,40.6
2018-08-04T09:15:07.223Z,41.1
2018-08-04T09:16:08.802Z,41.1
2018-08-04T09:17:10.427Z,40.1
2018-08-04T09:18:12.046Z,40.6
2018-08-04T09:19:13.709Z,40.6
2018-08-04T09:20:15.386Z,40.6
2018-08-04T09:21:17.084Z,40.1
2018-08-04T09:22:18.552Z,41.1
2018-08-04T09:23:19.836Z,40.1
2018-08-04T09:24:21.458Z,40.1
2018-08-04T09:25:22.739Z,40.1
2018-08-04T09:26:24.377Z,40.1
2018-08-04T09:27:25.997Z,40.1
2018-08-04T09:28:27.605Z,40.6
2018-08-04T09:29:28.897Z,39.6
2018-08-04T09:30:29.989Z,40.6
2018-08-04T09:31:31.285Z,40.6
2018-08-04T09:32:32.913Z,40.1
2018-08-04T09:33:34.518Z,40.1
2018-08-04T09:34:36.127Z,40.1
2018-08-04T09:35:37.627Z,40.6
2018-08-04T09:36:39.269Z,40.1
2018-08-04T09:37:40.954Z,40.6
2018-08-04T09:38:42.393Z,41.1
2018-08-04T09:39:44.024Z,40.1
2018-08-04T09:40:45.514Z,41.1
2018-08-04T09:41:47.113Z,41.1
2018-08-04T09:42:48.557Z,41.1
2018-08-04T09:43:50.192Z,41.1
2018-08-04T09:44:51.477Z,41.1
2018-08-04T09:45:53.094Z,40.1
2018-08-04T09:46:54.531Z,41.1
2018-08-04T09:47:56.171Z,41.1
2018-08-04T09:48:57.646Z,41.5
2018-08-04T09:49:59.091Z,41.5
2018-08-04T09:51:00.821Z,41.5
2018-08-04T09:52:02.492Z,41.1
2018-08-04T09:53:04.100Z,41.5
2018-08-04T09:54:05.713Z,42.5
2018-08-04T09:55:07.323Z,41.5
2018-08-04T09:56:08.930Z,41.5
2018-08-04T09:57:10.383Z,41.5
2018-08-04T09:58:12.041Z,42
2018-08-04T09:59:13.679Z,42
2018-08-04T10:00:15.301Z,42
2018-08-04T10:01:16.911Z,41.5
2018-08-04T10:02:18.533Z,42.5
2018-08-04T10:03:20.126Z,42.5
2018-08-04T10:04:21.729Z,42.5
2018-08-04T10:05:23.428Z,42
2018-08-04T10:06:25.056Z,42.5
2018-08-04T10:07:26.656Z,42.5
2018-08-04T10:08:27.791Z,42
2018-08-04T10:09:29.401Z,42.5
2018-08-04T10:10:30.849Z,42
2018-08-04T10:11:32.300Z,42.5
2018-08-04T10:12:33.976Z,42
2018-08-04T10:13:35.448Z,42
2018-08-04T10:14:37.059Z,42
2018-08-04T10:15:38.532Z,42
2018-08-04T10:16:39.967Z,41.5
2018-08-04T10:17:41.565Z,42
2018-08-04T10:18:43.177Z,42
2018-08-04T10:19:44.618Z,42
2018-08-04T10:20:46.219Z,41.5
2018-08-04T10:21:47.689Z,41.5
2018-08-04T10:22:49.289Z,41.5
2018-08-04T10:23:50.893Z,42.5
2018-08-04T10:24:52.503Z,42
2018-08-04T10:25:54.243Z,41.1
2018-08-04T10:26:55.753Z,41.5
2018-08-04T10:27:57.201Z,42.5
2018-08-04T10:28:58.653Z,42
2018-08-04T10:30:00.111Z,40.6
2018-08-04T10:31:01.749Z,41.5
2018-08-04T10:32:03.908Z,41.1
2018-08-04T10:33:06.043Z,41.5
2018-08-04T10:34:07.656Z,41.1
2018-08-04T10:35:09.292Z,41.5
2018-08-04T10:36:10.755Z,41.5
2018-08-04T10:37:12.237Z,42
2018-08-04T10:38:13.870Z,41.5
2018-08-04T10:39:15.537Z,41.5
2018-08-04T10:40:17.163Z,41.1
2018-08-04T10:41:18.444Z,41.5
2018-08-04T10:42:19.939Z,41.1
2018-08-04T10:43:21.386Z,42
2018-08-04T10:44:22.837Z,41.5
2018-08-04T10:45:24.290Z,40.6
2018-08-04T10:46:25.991Z,41.1
2018-08-04T10:47:27.669Z,40.6
2018-08-04T10:48:29.324Z,41.1
2018-08-04T10:49:31.305Z,41.5
2018-08-04T10:50:33.154Z,42
2018-08-04T10:51:34.644Z,41.1
2018-08-04T10:52:36.263Z,40.6
2018-08-04T10:53:37.529Z,41.1
2018-08-04T10:54:39.184Z,41.5
2018-08-04T10:55:40.822Z,41.5
2018-08-04T10:56:42.437Z,40.6
2018-08-04T10:57:44.064Z,40.6
2018-08-04T10:58:45.678Z,41.1
2018-08-04T10:59:47.280Z,41.1
2018-08-04T11:00:48.882Z,40.6
2018-08-04T11:01:50.342Z,41.1
2018-08-04T11:02:51.963Z,40.6
2018-08-04T11:03:53.663Z,40.1
2018-08-04T11:04:55.291Z,40.6
2018-08-04T11:05:56.899Z,40.1
2018-08-04T11:06:58.495Z,40.6
2018-08-04T11:08:00.093Z,40.6
2018-08-04T11:09:01.708Z,40.1
2018-08-04T11:10:03.140Z,40.6
2018-08-04T11:11:04.762Z,40.6
2018-08-04T11:12:06.365Z,40.6
2018-08-04T11:13:07.901Z,40.1
2018-08-04T11:14:09.528Z,40.6
2018-08-04T11:15:11.151Z,40.1
2018-08-04T11:16:12.590Z,40.1
2018-08-04T11:17:14.030Z,40.6
2018-08-04T11:18:16.128Z,40.6
2018-08-04T11:19:17.576Z,39.6
2018-08-04T11:20:19.063Z,41.1
2018-08-04T11:21:20.666Z,40.1
2018-08-04T11:22:21.808Z,40.1
2018-08-04T11:23:23.433Z,40.1
2018-08-04T11:24:25.064Z,40.6
2018-08-04T11:25:26.520Z,40.6
2018-08-04T11:26:27.959Z,40.1
2018-08-04T11:27:29.564Z,40.1
2018-08-04T11:28:31.025Z,40.6
2018-08-04T11:29:32.576Z,40.1
2018-08-04T11:30:34.031Z,40.1
2018-08-04T11:31:35.306Z,41.1
2018-08-04T11:32:36.604Z,40.1
2018-08-04T11:33:38.212Z,41.1
2018-08-04T11:34:39.648Z,40.6
2018-08-04T11:35:41.257Z,41.5
2018-08-04T11:36:42.869Z,41.1
2018-08-04T11:37:44.767Z,41.1
2018-08-04T11:38:46.368Z,41.5
2018-08-04T11:39:47.989Z,41.1
2018-08-04T11:40:49.620Z,42
2018-08-04T11:41:51.223Z,42.5
2018-08-04T11:42:52.853Z,41.5
2018-08-04T11:43:54.115Z,42.5
2018-08-04T11:44:55.536Z,42.5
2018-08-04T11:45:57.132Z,42
2018-08-04T11:46:58.588Z,42.5
2018-08-04T11:47:59.879Z,43
2018-08-04T11:49:01.493Z,42.5
2018-08-04T11:50:03.312Z,42
2018-08-04T11:51:04.937Z,43
2018-08-04T11:52:06.225Z,42.5
2018-08-04T11:53:07.821Z,43
2018-08-04T11:54:09.259Z,43
2018-08-04T11:55:10.886Z,42
2018-08-04T11:56:12.493Z,42
2018-08-04T11:57:14.106Z,42.5
2018-08-04T11:58:15.883Z,42.5
2018-08-04T11:59:17.161Z,43
2018-08-04T12:00:18.625Z,43
2018-08-04T12:01:19.915Z,42.5
2018-08-04T12:02:21.504Z,42
2018-08-04T12:03:23.125Z,42.5
2018-08-04T12:04:24.731Z,41.5
2018-08-04T12:05:26.584Z,42
2018-08-04T12:06:28.381Z,41.5
2018-08-04T12:07:30.086Z,42.5
2018-08-04T12:08:31.694Z,42.5
2018-08-04T12:09:33.317Z,42
2018-08-04T12:10:34.756Z,42
2018-08-04T12:11:36.054Z,41.5
2018-08-04T12:12:37.644Z,42
2018-08-04T12:13:39.242Z,41.5
2018-08-04T12:14:40.860Z,42
2018-08-04T12:15:42.471Z,41.5
2018-08-04T12:16:43.925Z,41.5
2018-08-04T12:17:45.036Z,42.5
2018-08-04T12:18:46.471Z,42
2018-08-04T12:19:47.927Z,42
2018-08-04T12:20:49.386Z,42
2018-08-04T12:21:50.843Z,41.1
2018-08-04T12:22:52.437Z,41.1
2018-08-04T12:23:54.032Z,41.1
2018-08-04T12:24:55.473Z,42
2018-08-04T12:25:56.912Z,42
2018-08-04T12:26:58.516Z,41.1
2018-08-04T12:27:59.979Z,41.1
2018-08-04T12:29:01.606Z,40.6
2018-08-04T12:30:03.266Z,41.5
2018-08-04T12:31:04.710Z,41.5
2018-08-04T12:32:06.376Z,41.5
2018-08-04T12:33:07.997Z,41.1
2018-08-04T12:34:09.492Z,41.1
2018-08-04T12:35:10.935Z,41.5
2018-08-04T12:36:12.556Z,41.1
2018-08-04T12:37:14.166Z,41.1
2018-08-04T12:38:15.630Z,40.6
2018-08-04T12:39:17.270Z,41.1
2018-08-04T12:40:18.872Z,41.5
2018-08-04T12:41:20.338Z,41.5
2018-08-04T12:42:21.972Z,41.1
2018-08-04T12:43:23.442Z,40.6
2018-08-04T12:44:25.048Z,41.5
2018-08-04T12:45:26.700Z,41.5
2018-08-04T12:46:28.433Z,40.6
2018-08-04T12:47:30.045Z,41.1
2018-08-04T12:48:31.658Z,40.1
2018-08-04T12:49:33.157Z,41.1
2018-08-04T12:50:34.770Z,41.5
2018-08-04T12:51:36.371Z,41.5
2018-08-04T12:52:37.979Z,40.6
2018-08-04T12:53:39.580Z,40.6
2018-08-04T12:54:41.198Z,40.6
2018-08-04T12:55:42.828Z,40.6
2018-08-04T12:56:44.435Z,41.1
2018-08-04T12:57:45.885Z,41.1
2018-08-04T12:58:47.164Z,40.1
2018-08-04T12:59:48.604Z,40.6
2018-08-04T13:00:50.221Z,41.1
2018-08-04T13:01:51.681Z,41.1
2018-08-04T13:02:53.270Z,40.6
2018-08-04T13:03:54.891Z,40.6
2018-08-04T13:04:56.366Z,41.1
2018-08-04T13:05:57.969Z,40.6
2018-08-04T13:06:59.576Z,40.1
2018-08-04T13:08:01.188Z,40.6
2018-08-04T13:09:02.831Z,39.6
2018-08-04T13:10:04.457Z,40.1
2018-08-04T13:11:05.901Z,40.6
2018-08-04T13:12:07.494Z,40.1
2018-08-04T13:13:09.097Z,40.1
2018-08-04T13:14:10.698Z,40.6
2018-08-04T13:15:12.307Z,41.1
2018-08-04T13:16:13.743Z,39.6
2018-08-04T13:17:15.348Z,40.1
2018-08-04T13:18:16.666Z,40.6
2018-08-04T13:19:18.271Z,40.6
2018-08-04T13:20:19.928Z,40.1
2018-08-04T13:21:21.537Z,40.6
2018-08-04T13:22:23.156Z,40.1
2018-08-04T13:23:24.764Z,40.1
2018-08-04T13:24:26.398Z,40.6
2018-08-04T13:25:27.525Z,41.5
2018-08-04T13:26:28.969Z,40.6
2018-08-04T13:27:30.615Z,41.1
2018-08-04T13:28:31.885Z,41.5
2018-08-04T13:29:33.451Z,41.1
2018-08-04T13:30:35.121Z,41.1
2018-08-04T13:31:36.747Z,41.5
2018-08-04T13:32:38.363Z,42
2018-08-04T13:33:39.806Z,42
2018-08-04T13:34:41.100Z,41.5
2018-08-04T13:35:42.691Z,42
2018-08-04T13:36:44.142Z,42
2018-08-04T13:37:45.752Z,42
2018-08-04T13:38:47.535Z,42
2018-08-04T13:39:49.218Z,42.5
2018-08-04T13:40:50.835Z,42
2018-08-04T13:41:52.450Z,42
2018-08-04T13:42:54.336Z,42.5
2018-08-04T13:43:55.740Z,42
2018-08-04T13:44:57.347Z,42
2018-08-04T13:45:58.785Z,43
2018-08-04T13:47:00.535Z,41.5